createdAt,value
2017-09-12T00:02:26.994Z,21.96
2017-09-12T00:04:58.181Z,22.10
2017-09-12T00:07:30.379Z,22.16
2017-09-12T00:10:02.857Z,22.13
2017-09-12T00:12:37.951Z,22.09
2017-09-12T00:15:11.833Z,22.14
2017-09-12T00:17:43.818Z,22.16
2017-09-12T00:20:15.323Z,22.17
2017-09-12T00:22:47.241Z,22.10
2017-09-12T00:25:20.646Z,22.36
2017-09-12T00:27:52.452Z,22.04
2017-09-12T00:30:24.123Z,22.28
2017-09-12T00:32:55.698Z,22.30
2017-09-12T00:35:27.303Z,22.17
2017-09-12T00:37:58.747Z,22.21
2017-09-12T00:40:30.495Z,22.20
2017-09-12T00:43:03.235Z,22.11
2017-09-12T00:45:36.699Z,22.09
2017-09-12T00:48:08.344Z,22.06
2017-09-12T00:50:39.971Z,21.07
2017-09-12T00:53:11.597Z,22.07
2017-09-12T00:55:44.435Z,21.98
2017-09-12T00:58:16.088Z,21.96
2017-09-12T01:00:48.738Z,22.03
2017-09-12T01:03:20.546Z,21.81
2017-09-12T01:05:52.340Z,21.87
2017-09-12T01:08:24.097Z,22.08
2017-09-12T01:10:56.254Z,21.99
2017-09-12T01:13:28.022Z,22.18
2017-09-12T01:15:59.892Z,22.13
2017-09-12T01:18:33.224Z,21.95
2017-09-12T01:21:05.423Z,22.13
2017-09-12T01:23:41.745Z,22.11
2017-09-12T01:26:13.732Z,21.85
2017-09-12T01:28:46.225Z,22.40
2017-09-12T01:31:18.597Z,22.77
2017-09-12T01:33:50.626Z,23.00
2017-09-12T01:36:22.755Z,23.17
2017-09-12T01:38:55.178Z,23.31
2017-09-12T01:41:27.226Z,23.44
2017-09-12T01:43:59.144Z,23.55
2017-09-12T01:46:30.944Z,23.68
2017-09-12T01:49:02.781Z,23.76
2017-09-12T01:51:37.543Z,23.87
2017-09-12T01:54:10.142Z,23.96
2017-09-12T01:56:42.339Z,24.04
2017-09-12T01:59:14.679Z,24.08
2017-09-12T02:01:46.544Z,24.16
2017-09-12T02:04:18.455Z,24.23
2017-09-12T02:06:50.135Z,24.29
2017-09-12T02:09:21.545Z,24.34
2017-09-12T02:11:54.008Z,24.39
2017-09-12T02:14:25.692Z,24.44
2017-09-12T02:16:57.514Z,24.50
2017-09-12T02:19:29.457Z,24.54
2017-09-12T02:22:06.879Z,24.59
2017-09-12T02:24:46.321Z,24.65
2017-09-12T02:27:20.667Z,24.68
2017-09-12T02:30:06.387Z,24.72
2017-09-12T02:32:53.456Z,24.73
2017-09-12T02:35:30.231Z,24.81
2017-09-12T02:41:00.079Z,24.88
2017-09-12T02:43:44.026Z,24.95
2017-09-12T02:46:25.104Z,24.98
2017-09-12T02:49:13.969Z,25.00
2017-09-12T02:51:55.154Z,25.03
2017-09-12T02:54:48.531Z,25.08
2017-09-12T02:57:28.181Z,25.07
2017-09-12T03:00:04.560Z,25.07
2017-09-12T03:02:51.367Z,25.16
2017-09-12T03:05:40.463Z,25.18
2017-09-12T03:08:22.731Z,25.20
2017-09-12T03:11:06.578Z,25.14
2017-09-12T03:13:44.999Z,23.80
2017-09-12T03:16:24.859Z,25.32
2017-09-12T03:19:04.907Z,25.35
2017-09-12T03:21:40.127Z,25.35
2017-09-12T03:24:15.190Z,25.36
2017-09-12T03:26:54.331Z,25.20
2017-09-12T03:29:31.221Z,25.39
2017-09-12T03:32:08.600Z,25.42
2017-09-12T03:37:58.425Z,25.22
2017-09-12T03:41:13.193Z,25.49
2017-09-12T03:43:54.477Z,25.49
2017-09-12T03:46:52.972Z,25.52
2017-09-12T03:49:38.961Z,25.52
2017-09-12T03:52:17.800Z,25.55
2017-09-12T03:55:00.745Z,25.58
2017-09-12T03:57:51.735Z,25.60
2017-09-12T04:00:28.410Z,25.62
2017-09-12T04:03:06.318Z,25.61
2017-09-12T04:08:45.981Z,24.36
2017-09-12T04:11:25.228Z,25.64
2017-09-12T04:14:02.221Z,25.64
2017-09-12T04:16:35.836Z,25.59
2017-09-12T04:19:14.028Z,25.63
2017-09-12T04:21:59.304Z,25.64
2017-09-12T04:25:03.138Z,25.65
2017-09-12T04:27:46.254Z,25.66
2017-09-12T04:30:22.014Z,25.64
2017-09-12T04:33:00.526Z,25.66
